Time;durP1;ratioP1;P1;durP2;ratioP2;P2;SDS_P1;SDS_P2;PMS_P1;PMS_P2;Temp;Humidity;BMP_temperature;BMP_pressure;BME280_temperature;BME280_humidity;BME280_pressure;Samples;Min_cycle;Max_cycle;Signal;HPM_P1;HPM_P2
2022/04/03 00:01:05;;;;;;;1.85;1.58;;;;;;;7.98;95.37;95915.56;5005621;28;20054;-66
2022/04/03 00:03:32;;;;;;;2.65;1.50;;;;;;;7.99;96.41;95910.81;5006092;28;20204;-67
2022/04/03 00:05:59;;;;;;;3.53;1.48;;;;;;;7.30;93.40;95805.88;5006445;28;20058;-57
2022/04/03 00:08:28;;;;;;;2.50;1.30;;;;;;;7.88;93.73;95918.22;5004894;28;20054;-57
2022/04/03 00:10:54;;;;;;;2.28;1.27;;;;;;;7.80;93.95;95908.28;5004678;28;20053;-57
2022/04/03 00:13:21;;;;;;;2.80;1.52;;;;;;;7.85;93.45;95918.97;5006129;28;20077;-60
2022/04/03 00:15:48;;;;;;;3.00;2.13;;;;;;;7.49;93.11;95866.28;5004441;28;20049;-66
2022/04/03 00:18:15;;;;;;;1.52;1.13;;;;;;;7.92;92.11;95921.81;5005881;28;20068;-66
2022/04/03 00:20:43;;;;;;;1.73;1.60;;;;;;;7.88;91.31;95898.91;5005597;28;20053;-66
2022/04/03 00:23:10;;;;;;;8.73;2.38;;;;;;;6.65;92.34;95777.31;5005555;28;20061;-67
2022/04/03 00:25:37;;;;;;;73.60;11.20;;;;;;;7.30;95.94;95918.81;5005476;28;20046;-65
2022/04/03 00:28:04;;;;;;;19.90;4.53;;;;;;;7.54;95.33;95928.50;5006525;28;20064;-67
2022/04/03 00:30:30;;;;;;;16.85;3.53;;;;;;;7.71;95.45;95917.66;5005678;28;20591;-58
2022/04/03 00:32:57;;;;;;;12.90;3.60;;;;;;;7.70;94.71;95904.25;5004192;28;20148;-58
2022/04/03 00:35:25;;;;;;;5.50;2.00;;;;;;;7.50;96.63;95865.13;5005318;28;20058;-67
2022/04/03 00:37:51;;;;;;;4.13;2.03;;;;;;;7.20;96.15;95820.34;5005833;28;20076;-57
2022/04/03 00:40:23;;;;;;;6.43;2.65;;;;;;;7.41;94.42;95853.59;5004807;28;20068;-58
2022/04/03 00:42:50;;;;;;;2.70;1.55;;;;;;;7.17;94.29;95807.34;5003937;28;20050;-59
2022/04/03 00:45:17;;;;;;;3.63;1.40;;;;;;;7.68;95.67;95873.56;5004987;28;20207;-67
2022/04/03 00:47:45;;;;;;;2.88;1.60;;;;;;;7.67;94.84;95874.72;5005488;28;20428;-58
2022/04/03 00:50:11;;;;;;;2.90;1.80;;;;;;;7.63;95.11;95860.88;5003899;28;20500;-61
2022/04/03 00:52:38;;;;;;;3.67;1.52;;;;;;;7.20;94.86;95811.28;5004243;28;20045;-57
2022/04/03 00:55:06;;;;;;;2.80;1.55;;;;;;;7.35;94.21;95832.31;5005818;28;20054;-59
2022/04/03 00:57:34;;;;;;;9.38;2.58;;;;;;;7.62;95.41;95867.59;5005297;28;20057;-59
2022/04/03 01:00:01;;;;;;;7.45;3.20;;;;;;;7.80;95.75;95884.28;5003985;28;20388;-68
2022/04/03 01:02:27;;;;;;;7.15;3.10;;;;;;;7.83;94.44;95885.47;5005297;28;20567;-58
2022/04/03 01:04:54;;;;;;;6.28;3.45;;;;;;;7.83;94.87;95886.28;5005325;28;20050;-68
2022/04/03 01:07:21;;;;;;;8.70;3.58;;;;;;;7.90;94.45;95880.84;5004988;28;20426;-68
2022/04/03 01:09:47;;;;;;;9.13;3.60;;;;;;;7.79;94.93;95879.16;5005546;28;20053;-58
2022/04/03 01:12:14;;;;;;;9.27;3.65;;;;;;;7.47;94.28;95813.53;5005398;28;20469;-68
2022/04/03 01:15:01;;;;;;;5.93;3.30;;;;;;;7.90;94.10;95882.78;5003291;28;20058;-58
2022/04/03 01:17:28;;;;;;;8.90;2.95;;;;;;;8.05;92.50;95876.19;5005280;28;20064;-58
2022/04/03 01:19:55;;;;;;;12.52;3.45;;;;;;;7.96;91.55;95850.94;5003221;28;20046;-58
2022/04/03 01:22:21;;;;;;;20.25;4.90;;;;;;;7.02;91.46;95708.47;5004710;28;20050;-67
2022/04/03 01:24:55;;;;;;;14.73;4.38;;;;;;;7.59;92.04;95810.47;5004697;28;20164;-67
2022/04/03 01:27:22;;;;;;;21.17;4.30;;;;;;;7.96;92.23;95873.00;5003325;28;20054;-59
2022/04/03 01:29:49;;;;;;;15.95;3.55;;;;;;;7.81;91.27;95827.19;5004843;28;20057;-58
2022/04/03 01:32:16;;;;;;;19.20;4.00;;;;;;;7.32;95.67;95853.13;5003167;28;20049;-68
2022/04/03 01:34:43;;;;;;;16.73;3.45;;;;;;;7.44;95.83;95852.88;5004339;28;20050;-68
2022/04/03 01:37:10;;;;;;;13.93;3.60;;;;;;;7.36;95.31;95856.72;5004596;28;20052;-66
2022/04/03 01:39:37;;;;;;;6.40;2.67;;;;;;;6.96;98.05;95826.38;5004150;28;20513;-58
2022/04/03 01:42:03;;;;;;;21.38;5.72;;;;;;;7.15;98.49;95850.97;5002434;28;20057;-60
2022/04/03 01:44:30;;;;;;;17.90;3.83;;;;;;;7.23;97.80;95840.81;5004488;28;20056;-57
2022/04/03 01:46:57;;;;;;;7.28;2.53;;;;;;;6.90;98.22;95778.34;5004308;28;20539;-58
2022/04/03 01:49:23;;;;;;;8.32;2.70;;;;;;;6.88;97.97;95783.44;5004315;28;20124;-58
2022/04/03 01:51:50;;;;;;;5.22;2.65;;;;;;;7.09;98.05;95827.72;5004199;28;20060;-58
2022/04/03 01:54:17;;;;;;;4.18;1.80;;;;;;;7.08;98.78;95845.38;5004314;28;20565;-58
2022/04/03 01:56:44;;;;;;;3.53;1.77;;;;;;;7.05;99.41;95846.16;5004184;28;20068;-68
2022/04/03 01:59:11;;;;;;;6.68;3.45;;;;;;;6.75;99.46;95795.88;5003886;28;20050;-68
2022/04/03 02:01:38;;;;;;;9.40;3.63;;;;;;;7.02;99.68;95835.88;5003785;28;20050;-58
2022/04/03 02:04:05;;;;;;;11.95;4.22;;;;;;;6.92;100.00;95836.59;5003889;28;20571;-68
2022/04/03 02:06:31;;;;;;;10.00;3.83;;;;;;;6.76;100.00;95810.44;5004183;28;20054;-58
2022/04/03 02:09:00;;;;;;;8.02;3.45;;;;;;;6.97;100.00;95838.97;4999596;28;20068;-68
2022/04/03 02:11:29;;;;;;;7.80;3.90;;;;;;;6.70;100.00;95823.72;5002346;28;20069;-60
2022/04/03 02:13:55;;;;;;;5.20;2.30;;;;;;;6.43;100.00;95797.47;5002224;28;20054;-58
2022/04/03 02:16:23;;;;;;;3.42;2.30;;;;;;;6.71;100.00;95843.78;5003821;28;20068;-63
2022/04/03 02:18:50;;;;;;;14.98;5.57;;;;;;;6.52;99.89;95828.22;5003965;28;20492;-57
2022/04/03 02:21:17;;;;;;;4.93;2.28;;;;;;;6.43;100.00;95852.47;5002567;28;20050;-68
2022/04/03 02:23:44;;;;;;;4.90;1.70;;;;;;;6.46;100.00;95848.97;5003987;28;20049;-68
2022/04/03 02:26:11;;;;;;;4.22;1.40;;;;;;;5.80;100.00;95774.59;5003559;28;20061;-58
2022/04/03 02:28:39;;;;;;;1.90;1.27;;;;;;;6.44;100.00;95867.00;5002563;28;20056;-68
2022/04/03 02:31:05;;;;;;;3.00;1.58;;;;;;;6.50;100.00;95860.00;5001845;28;20139;-57
2022/04/03 02:33:32;;;;;;;4.43;2.92;;;;;;;6.46;100.00;95867.44;5002273;28;20058;-59
2022/04/03 02:35:59;;;;;;;11.30;3.75;;;;;;;6.48;100.00;95863.13;5003472;28;20082;-67
2022/04/03 02:38:26;;;;;;;6.15;3.58;;;;;;;6.32;100.00;95851.53;5004051;28;20050;-58
2022/04/03 02:40:53;;;;;;;6.03;2.55;;;;;;;3.75;99.79;95457.09;5004178;28;20065;-58
2022/04/03 02:43:19;;;;;;;5.07;3.15;;;;;;;6.28;100.00;95860.88;5003702;28;20065;-68
2022/04/03 02:45:46;;;;;;;4.95;3.13;;;;;;;6.34;100.00;95871.19;5001943;28;20050;-68
2022/04/03 02:48:13;;;;;;;5.88;3.60;;;;;;;6.36;100.00;95868.06;5003544;28;20046;-69
2022/04/03 02:50:40;;;;;;;4.88;2.63;;;;;;;6.42;100.00;95864.63;5003259;28;20104;-68
2022/04/03 02:53:07;;;;;;;5.40;3.13;;;;;;;6.39;100.00;95868.13;5002011;28;20053;-58
2022/04/03 02:55:34;;;;;;;6.07;3.20;;;;;;;6.42;100.00;95867.38;5002918;28;20057;-58
2022/04/03 02:58:01;;;;;;;5.07;2.80;;;;;;;6.47;100.00;95872.56;5003584;28;20057;-69
2022/04/03 03:00:28;;;;;;;2.92;2.28;;;;;;;5.96;99.49;95800.75;5001792;28;20144;-69
2022/04/03 03:02:55;;;;;;;4.50;2.42;;;;;;;6.06;100.00;95859.78;5009587;28;20053;-68
2022/04/03 03:05:22;;;;;;;3.85;2.10;;;;;;;6.05;100.00;95880.19;5022560;28;20068;-68
2022/04/03 03:07:49;;;;;;;6.03;2.00;;;;;;;5.89;100.00;95876.81;5023381;28;20049;-58
2022/04/03 03:10:18;;;;;;;7.47;3.22;;;;;;;5.94;100.00;95879.25;5021768;28;20057;-68
2022/04/03 03:12:46;;;;;;;6.53;3.20;;;;;;;5.55;99.72;95822.81;5023597;28;20588;-68
2022/04/03 03:15:14;;;;;;;5.15;2.47;;;;;;;5.93;98.95;95877.63;5026276;28;20076;-69
2022/04/03 03:17:41;;;;;;;8.10;3.20;;;;;;;5.83;100.00;95886.53;5026734;28;20053;-69
2022/04/03 03:20:10;;;;;;;5.90;2.92;;;;;;;5.68;100.00;95885.47;5027061;28;20389;-68
2022/04/03 03:22:37;;;;;;;6.28;2.83;;;;;;;5.83;100.00;95873.56;5026611;28;20089;-61
2022/04/03 03:25:06;;;;;;;5.13;3.00;;;;;;;5.48;100.00;95800.75;5026179;28;20049;-69
2022/04/03 03:27:36;;;;;;;7.45;3.50;;;;;;;5.48;100.00;95817.25;5025104;28;20501;-69
2022/04/03 03:30:04;;;;;;;11.77;4.68;;;;;;;5.87;100.00;95868.13;5026769;28;20061;-60
2022/04/03 03:32:30;;;;;;;9.75;4.18;;;;;;;5.53;100.00;95841.66;5025100;28;20543;-68
2022/04/03 03:34:57;;;;;;;4.35;2.75;;;;;;;5.62;100.00;95872.41;5026276;28;20060;-59
2022/04/03 03:37:24;;;;;;;3.67;2.40;;;;;;;5.64;100.00;95875.56;5025443;28;20053;-61
2022/04/03 03:39:51;;;;;;;6.63;2.42;;;;;;;5.04;100.00;95783.16;5026942;28;20704;-59
2022/04/03 03:42:17;;;;;;;4.43;2.65;;;;;;;5.48;100.00;95894.13;5025785;28;20214;-59
2022/04/03 03:44:44;;;;;;;4.45;2.53;;;;;;;5.47;100.00;95881.56;5026052;28;20055;-61
2022/04/03 03:47:11;;;;;;;4.43;2.58;;;;;;;5.39;100.00;95882.59;5026273;28;20049;-68
2022/04/03 03:49:38;;;;;;;7.75;2.38;;;;;;;5.44;100.00;95893.25;5024711;28;20053;-60
2022/04/03 03:52:05;;;;;;;6.10;2.58;;;;;;;5.35;100.00;95889.97;5024228;28;20076;-68
2022/04/03 03:54:32;;;;;;;6.32;2.08;;;;;;;5.12;100.00;95853.47;5025949;28;20062;-68
2022/04/03 03:56:59;;;;;;;5.40;2.58;;;;;;;4.22;100.00;95719.75;5026447;28;20559;-59
2022/04/03 03:59:26;;;;;;;5.50;2.90;;;;;;;5.15;100.00;95875.50;5024905;28;20076;-69
2022/04/03 04:01:53;;;;;;;5.60;3.15;;;;;;;5.08;100.00;95858.09;5025828;28;20432;-60
2022/04/03 04:04:20;;;;;;;4.35;2.40;;;;;;;5.24;100.00;95883.47;5020721;28;20054;-66
2022/04/03 04:06:48;;;;;;;4.18;2.10;;;;;;;5.42;100.00;95885.38;5005745;28;20046;-67
2022/04/03 04:09:15;;;;;;;5.57;2.55;;;;;;;5.45;100.00;95894.84;5006242;28;20084;-61
2022/04/03 04:11:42;;;;;;;4.82;2.00;;;;;;;5.16;100.00;95826.88;5005434;28;20050;-67
2022/04/03 04:14:09;;;;;;;3.65;2.38;;;;;;;5.73;100.00;95893.41;5003654;28;20517;-68
2022/04/03 04:16:35;;;;;;;4.53;2.40;;;;;;;5.79;100.00;95904.84;5004402;28;20057;-67
2022/04/03 04:19:06;;;;;;;5.90;2.05;;;;;;;5.83;100.00;95867.28;5006655;28;20181;-62
2022/04/03 04:21:33;;;;;;;3.55;2.08;;;;;;;5.88;99.88;95887.00;5004726;28;20504;-61
2022/04/03 04:24:00;;;;;;;5.03;2.47;;;;;;;5.44;99.50;95819.13;5005361;28;20100;-60
2022/04/03 04:26:27;;;;;;;3.80;2.20;;;;;;;5.37;99.20;95805.28;5005654;28;20068;-66
2022/04/03 04:28:53;;;;;;;3.35;2.20;;;;;;;5.91;97.98;95888.22;5005899;28;20053;-67
2022/04/03 04:31:20;;;;;;;5.55;2.35;;;;;;;5.72;100.00;95899.25;5005647;28;20050;-67
2022/04/03 04:33:47;;;;;;;3.55;2.45;;;;;;;5.74;100.00;95907.91;5005918;28;20045;-60
2022/04/03 04:36:13;;;;;;;4.15;2.28;;;;;;;5.92;99.90;95914.53;5003551;28;20060;-67
2022/04/03 04:38:41;;;;;;;7.22;2.28;;;;;;;5.99;98.25;95887.19;5003852;28;20573;-67
2022/04/03 04:41:08;;;;;;;4.05;2.17;;;;;;;6.29;98.00;95910.03;5004970;28;20088;-63
2022/04/03 04:43:34;;;;;;;8.52;3.50;;;;;;;6.09;98.74;95859.03;5005751;28;20061;-67
2022/04/03 04:46:01;;;;;;;3.72;2.33;;;;;;;6.09;96.81;95820.56;5005317;28;20440;-67
2022/04/03 04:48:28;;;;;;;3.50;2.00;;;;;;;6.71;97.18;95907.88;5005281;28;20049;-63
2022/04/03 04:50:54;;;;;;;6.43;2.83;;;;;;;6.04;97.33;95779.66;5005063;28;20429;-67
2022/04/03 04:53:24;;;;;;;7.07;2.90;;;;;;;6.86;95.36;95906.88;5005062;28;20580;-60
2022/04/03 04:55:51;;;;;;;6.55;3.78;;;;;;;6.70;95.78;95911.75;5005017;28;20061;-67
2022/04/03 04:58:18;;;;;;;7.70;3.65;;;;;;;6.72;96.40;95919.66;5003592;28;20064;-60
2022/04/03 05:00:45;;;;;;;4.93;3.20;;;;;;;6.63;96.47;95910.88;5004935;28;20528;-60
2022/04/03 05:03:12;;;;;;;8.40;3.55;;;;;;;6.83;94.92;95915.88;4994717;28;20060;-67
2022/04/03 05:05:40;;;;;;;15.68;7.35;;;;;;;6.15;95.49;95835.56;5008117;28;20284;-60
2022/04/03 05:08:07;;;;;;;23.63;11.27;;;;;;;6.55;96.81;95895.44;5004902;28;20656;-60
2022/04/03 05:10:34;;;;;;;34.28;14.13;;;;;;;6.82;97.24;95914.28;5004418;28;20052;-60
2022/04/03 05:13:01;;;;;;;13.82;7.65;;;;;;;7.01;94.73;95927.91;5003221;28;20050;-61
2022/04/03 05:15:30;;;;;;;12.95;6.95;;;;;;;6.98;94.64;95923.16;5003347;28;20075;-61
2022/04/03 05:17:58;;;;;;;12.40;7.07;;;;;;;7.12;95.20;95933.53;5005069;28;20077;-67
2022/04/03 05:20:24;;;;;;;9.00;5.82;;;;;;;6.68;93.90;95848.09;5003002;28;20056;-67
2022/04/03 05:22:51;;;;;;;10.63;6.55;;;;;;;7.41;93.83;95940.97;5003632;28;20113;-67
2022/04/03 05:25:18;;;;;;;13.82;7.18;;;;;;;7.23;92.63;95882.94;5004538;28;20053;-61
2022/04/03 05:27:45;;;;;;;14.98;7.07;;;;;;;7.68;91.62;95928.66;5004752;28;20056;-68
2022/04/03 05:30:13;;;;;;;18.58;11.50;;;;;;;7.51;92.69;95916.28;5004202;28;20053;-67
2022/04/03 05:32:40;;;;;;;13.25;8.50;;;;;;;7.54;92.77;95929.31;5003047;28;20061;-61
2022/04/03 05:35:08;;;;;;;13.75;7.28;;;;;;;7.01;90.78;95828.81;5002459;28;20058;-60
2022/04/03 05:37:40;;;;;;;13.82;6.82;;;;;;;7.77;89.11;95953.16;5004487;28;20057;-62
2022/04/03 05:40:11;;;;;;;18.23;8.63;;;;;;;7.56;91.06;95949.00;5004538;28;20062;-60
2022/04/03 05:42:38;;;;;;;12.35;7.72;;;;;;;7.53;91.89;95916.72;5004583;28;20062;-67
2022/04/03 05:45:05;;;;;;;12.50;7.18;;;;;;;7.93;90.05;95949.00;5004447;28;20058;-62
2022/04/03 05:47:33;;;;;;;18.02;8.77;;;;;;;7.79;89.47;95950.81;5004295;28;20149;-61
2022/04/03 05:50:00;;;;;;;15.85;7.35;;;;;;;7.36;93.41;95977.13;5004199;28;20053;-68
2022/04/03 05:52:27;;;;;;;11.52;6.57;;;;;;;7.07;93.07;95920.91;5004174;28;20064;-68
2022/04/03 05:54:54;;;;;;;10.38;6.07;;;;;;;7.88;91.81;95954.84;5003669;28;20523;-69
2022/04/03 05:57:20;;;;;;;11.80;5.78;;;;;;;8.37;90.46;95955.31;5002445;28;20497;-61
2022/04/03 05:59:47;;;;;;;12.65;7.65;;;;;;;8.80;86.67;95962.69;5003860;28;20509;-60
2022/04/03 06:02:14;;;;;;;11.70;6.65;;;;;;;9.07;76.45;95960.50;5004161;28;20053;-60
2022/04/03 06:04:41;;;;;;;7.82;3.97;;;;;;;9.40;71.38;95965.78;5023498;28;20088;-67
2022/04/03 06:07:08;;;;;;;5.93;2.00;;;;;;;8.53;65.38;95781.19;5024097;28;20079;-59
2022/04/03 06:09:34;;;;;;;2.40;1.80;;;;;;;9.77;64.51;95963.53;5023639;28;20073;-60
2022/04/03 06:12:01;;;;;;;3.58;2.55;;;;;;;9.90;63.01;95967.50;5023871;28;20049;-60
2022/04/03 06:14:28;;;;;;;4.78;1.88;;;;;;;9.90;61.54;95975.81;5021903;28;20080;-68
2022/04/03 06:16:55;;;;;;;2.13;1.60;;;;;;;9.73;60.85;95946.16;5023376;28;20527;-58
2022/04/03 06:19:21;;;;;;;2.60;1.92;;;;;;;9.94;61.85;95982.13;5023346;28;20527;-66
2022/04/03 06:21:48;;;;;;;1.67;1.48;;;;;;;10.07;61.76;95997.22;5021647;28;20049;-65
2022/04/03 06:24:15;;;;;;;1.65;1.42;;;;;;;9.70;59.95;95935.06;5023848;28;20572;-66
2022/04/03 06:26:42;;;;;;;4.35;1.35;;;;;;;9.14;58.47;95888.69;5023662;28;20049;-66
2022/04/03 06:29:09;;;;;;;1.60;1.30;;;;;;;9.87;59.28;96012.53;5023926;28;20045;-65
2022/04/03 06:31:35;;;;;;;4.22;2.38;;;;;;;10.08;58.66;96022.91;5022611;28;20492;-65
2022/04/03 06:34:02;;;;;;;1.58;1.38;;;;;;;10.08;57.36;96031.22;5023175;28;20068;-60
2022/04/03 06:36:29;;;;;;;2.72;1.77;;;;;;;9.96;57.51;96046.16;5023075;28;20053;-67
2022/04/03 06:38:56;;;;;;;3.08;1.58;;;;;;;9.90;56.62;96046.91;5021802;28;20045;-60
2022/04/03 06:41:23;;;;;;;10.23;3.40;;;;;;;9.93;59.42;96035.88;5022651;28;20057;-62
2022/04/03 06:43:50;;;;;;;11.93;4.40;;;;;;;9.70;61.16;96020.78;5023269;28;20468;-59
2022/04/03 06:46:16;;;;;;;3.95;2.30;;;;;;;9.38;62.39;95981.97;5023082;28;20046;-65
2022/04/03 06:48:43;;;;;;;4.47;1.98;;;;;;;9.62;60.98;96019.16;5027203;28;20076;-66
2022/04/03 06:51:10;;;;;;;4.75;2.30;;;;;;;9.46;61.07;96016.75;5026999;28;20057;-66
2022/04/03 06:53:37;;;;;;;3.42;2.00;;;;;;;9.38;59.90;96026.16;5025460;28;20060;-59
2022/04/03 06:56:04;;;;;;;6.00;3.20;;;;;;;9.36;61.63;96011.94;5026652;28;20053;-66
2022/04/03 06:58:30;;;;;;;7.03;3.65;;;;;;;9.42;60.71;96015.91;5027093;28;20054;-61
2022/04/03 07:00:57;;;;;;;9.75;4.63;;;;;;;9.43;60.31;96000.94;5026345;28;20097;-68
2022/04/03 07:03:24;;;;;;;7.47;5.05;;;;;;;9.56;60.16;95977.31;5017872;28;20582;-60
2022/04/03 07:05:51;;;;;;;7.25;3.45;;;;;;;10.17;58.36;96007.50;5006928;28;20062;-62
2022/04/03 07:08:17;;;;;;;4.88;2.85;;;;;;;10.46;57.22;96020.19;5006811;28;20068;-65
2022/04/03 07:10:46;;;;;;;6.25;2.70;;;;;;;10.74;54.74;96024.97;5006905;28;20057;-58
2022/04/03 07:13:13;;;;;;;6.15;3.28;;;;;;;11.05;54.39;96023.34;5007129;28;20053;-65
2022/04/03 07:15:39;;;;;;;7.07;2.63;;;;;;;10.92;52.05;95975.88;5006835;28;20468;-59
2022/04/03 07:18:07;;;;;;;4.90;2.88;;;;;;;11.51;50.99;96029.56;5005414;28;20081;-57
2022/04/03 07:20:34;;;;;;;4.95;2.08;;;;;;;11.24;49.42;95997.97;5006474;28;20636;-65
2022/04/03 07:23:01;;;;;;;1.98;1.77;;;;;;;11.44;48.18;95974.94;5006549;28;20050;-65
2022/04/03 07:25:28;;;;;;;2.75;2.00;;;;;;;10.99;46.71;95905.78;5006595;28;20146;-57
2022/04/03 07:27:54;;;;;;;1.90;1.60;;;;;;;11.80;46.74;96092.13;5005639;28;20054;-65
2022/04/03 07:30:21;;;;;;;2.20;1.95;;;;;;;11.86;47.26;96033.06;5006267;28;20057;-65
2022/04/03 07:32:48;;;;;;;2.90;2.20;;;;;;;11.53;47.23;95949.53;5005442;28;20062;-59
2022/04/03 07:35:15;;;;;;;3.60;2.30;;;;;;;12.15;46.76;96026.16;5006482;28;20469;-64
2022/04/03 07:37:42;;;;;;;3.42;1.77;;;;;;;12.20;44.60;96022.19;5005218;28;20054;-58
2022/04/03 07:40:11;;;;;;;3.78;1.70;;;;;;;12.28;44.48;96050.69;5006263;28;20513;-65
2022/04/03 07:42:41;;;;;;;1.98;1.60;;;;;;;12.03;43.13;96011.94;5021212;28;20050;-65
2022/04/03 07:45:09;;;;;;;3.28;2.00;;;;;;;12.32;43.48;96043.91;5006291;28;20056;-59
2022/04/03 07:47:45;;;;;;;3.83;2.08;;;;;;;12.32;43.58;96055.03;5004915;28;20393;-64
2022/04/03 07:50:12;;;;;;;1.77;1.48;;;;;;;12.31;42.27;96056.22;5006356;28;20451;-64
2022/04/03 07:52:39;;;;;;;2.88;2.10;;;;;;;12.46;42.20;96046.59;5006313;28;20429;-64
2022/04/03 07:55:06;;;;;;;5.30;2.20;;;;;;;12.75;41.40;96048.00;5004695;28;20049;-64
2022/04/03 07:57:33;;;;;;;5.57;2.42;;;;;;;12.64;41.15;96047.28;5005484;28;20469;-58
2022/04/03 08:00:00;;;;;;;4.13;2.25;;;;;;;12.08;40.97;95958.78;5006074;28;20058;-59
2022/04/03 08:02:30;;;;;;;3.92;1.90;;;;;;;12.36;41.02;96000.25;5007226;28;20061;-61
2022/04/03 08:04:57;;;;;;;3.35;1.85;;;;;;;12.76;41.16;96055.13;5025869;28;20049;-65
2022/04/03 08:07:37;;;;;;;3.80;1.70;;;;;;;12.57;40.02;96014.00;5025875;28;20061;-60
2022/04/03 08:10:08;;;;;;;1.63;1.40;;;;;;;12.72;39.78;96059.94;5026235;28;20052;-60
2022/04/03 08:12:36;;;;;;;1.60;1.50;;;;;;;12.85;41.22;96061.00;5025375;28;20050;-66
2022/04/03 08:15:04;;;;;;;1.48;1.38;;;;;;;12.44;41.47;95982.34;5024178;28;20053;-60
2022/04/03 08:17:32;;;;;;;1.65;1.38;;;;;;;12.78;39.82;96058.28;5024104;28;20065;-61
2022/04/03 08:19:58;;;;;;;3.08;1.63;;;;;;;12.70;39.41;96067.88;5025556;28;20056;-60
2022/04/03 08:22:25;;;;;;;1.23;1.23;;;;;;;12.19;40.49;96037.25;5023740;28;20571;-59
2022/04/03 08:24:52;;;;;;;1.55;1.45;;;;;;;12.87;41.62;96061.38;5023667;28;20064;-66
2022/04/03 08:27:19;;;;;;;3.50;2.22;;;;;;;13.06;40.08;96074.78;5025005;28;20136;-65
2022/04/03 08:29:46;;;;;;;2.08;1.92;;;;;;;13.26;39.40;96063.88;5023955;28;20053;-65
2022/04/03 08:32:13;;;;;;;3.25;1.50;;;;;;;13.47;39.32;96067.25;5024116;28;20439;-60
2022/04/03 08:34:41;;;;;;;2.15;1.80;;;;;;;11.32;38.95;95723.09;5024072;28;20131;-59
2022/04/03 08:37:10;;;;;;;1.77;1.67;;;;;;;12.84;38.01;95964.94;5024930;28;20544;-60
2022/04/03 08:39:36;;;;;;;2.25;2.03;;;;;;;13.47;36.55;96061.69;5024962;28;20057;-59
2022/04/03 08:42:03;;;;;;;2.25;2.05;;;;;;;13.23;37.17;96034.88;5024870;28;20064;-60
2022/04/03 08:44:30;;;;;;;2.58;1.90;;;;;;;13.29;37.05;96018.56;5025406;28;20485;-66
2022/04/03 08:46:58;;;;;;;1.92;1.73;;;;;;;13.49;36.56;96075.97;5025203;28;20045;-65
2022/04/03 08:49:30;;;;;;;1.60;1.50;;;;;;;13.04;36.50;96024.34;5024723;28;20060;-65
2022/04/03 08:51:57;;;;;;;2.15;1.95;;;;;;;13.79;37.39;96088.38;5023968;28;20064;-65
2022/04/03 08:54:26;;;;;;;4.10;2.20;;;;;;;13.94;37.35;96070.31;5023629;28;20050;-60
2022/04/03 08:56:53;;;;;;;1.60;1.50;;;;;;;13.76;35.53;96072.50;5025273;28;20064;-60
2022/04/03 08:59:19;;;;;;;1.77;1.67;;;;;;;13.91;36.90;96073.94;5023594;28;20076;-67
2022/04/03 09:01:47;;;;;;;2.45;1.50;;;;;;;13.32;36.55;96003.81;5023412;28;20072;-62
2022/04/03 09:04:13;;;;;;;3.45;2.10;;;;;;;14.04;36.96;96081.31;5009789;28;20437;-59
2022/04/03 09:06:55;;;;;;;1.63;1.52;;;;;;;13.92;36.15;96100.56;5004837;28;20041;-59
2022/04/03 09:09:24;;;;;;;3.53;2.42;;;;;;;13.87;36.48;96076.75;5002427;28;20054;-59
2022/04/03 09:12:16;;;;;;;6.82;3.15;;;;;;;13.92;35.59;96050.44;5003772;28;20046;-65
2022/04/03 09:14:56;;;;;;;2.20;1.50;;;;;;;13.96;34.71;96070.69;5004957;28;20054;-60
2022/04/03 09:17:33;;;;;;;2.15;1.95;;;;;;;14.37;36.07;96069.38;5003045;28;20053;-60
2022/04/03 09:20:08;;;;;;;1.52;1.50;;;;;;;14.57;36.15;96072.31;5003313;28;20421;-60
2022/04/03 09:22:37;;;;;;;3.20;1.90;;;;;;;14.69;35.38;96058.59;5004539;28;20054;-59
2022/04/03 09:25:05;;;;;;;2.15;1.90;;;;;;;14.52;36.64;96069.97;5003166;28;20553;-65
2022/04/03 09:27:34;;;;;;;1.85;1.75;;;;;;;14.58;38.96;96073.88;5004817;28;20066;-59
2022/04/03 09:30:08;;;;;;;1.80;1.70;;;;;;;14.55;39.14;96042.06;5004500;28;20049;-66
2022/04/03 09:32:35;;;;;;;3.40;2.15;;;;;;;14.77;37.99;96087.94;5004618;28;20058;-61
2022/04/03 09:35:01;;;;;;;3.20;1.80;;;;;;;14.48;37.00;96094.34;5004462;28;20054;-66
2022/04/03 09:37:31;;;;;;;1.85;1.55;;;;;;;14.87;37.71;96091.78;5004913;28;20054;-62
2022/04/03 09:39:58;;;;;;;2.10;1.80;;;;;;;15.27;36.95;96096.31;5002901;28;20058;-66
2022/04/03 09:42:24;;;;;;;2.22;1.80;;;;;;;15.07;35.53;96089.88;5004457;28;20053;-60
2022/04/03 09:44:51;;;;;;;2.17;1.85;;;;;;;15.13;36.75;96057.47;5004128;28;20509;-60
2022/04/03 09:47:20;;;;;;;2.78;2.00;;;;;;;15.58;35.26;96091.44;5004330;28;20056;-60
2022/04/03 09:50:04;;;;;;;2.28;2.08;;;;;;;15.71;34.76;96090.38;5004360;28;20061;-66
2022/04/03 09:52:43;;;;;;;1.95;1.85;;;;;;;15.56;35.06;96091.88;5004237;28;20057;-61
2022/04/03 09:55:13;;;;;;;2.30;2.00;;;;;;;15.83;35.60;96092.56;5004505;28;20096;-66
2022/04/03 09:57:43;;;;;;;2.15;2.05;;;;;;;16.12;34.49;96099.16;5009760;28;20388;-60
2022/04/03 10:00:41;;;;;;;2.28;2.08;;;;;;;16.58;34.40;96071.06;5023459;28;20092;-66
2022/04/03 10:03:12;;;;;;;2.38;2.17;;;;;;;16.60;33.28;96096.59;5018966;28;20052;-67
2022/04/03 10:05:40;;;;;;;1.90;1.80;;;;;;;15.99;33.37;96081.47;5003526;28;20057;-59
2022/04/03 10:08:07;;;;;;;1.90;1.75;;;;;;;15.54;34.68;96013.34;5003632;28;20049;-66
2022/04/03 10:10:36;;;;;;;2.17;1.95;;;;;;;16.06;34.58;96122.47;5003510;28;20135;-67
2022/04/03 10:13:04;;;;;;;2.08;1.98;;;;;;;16.05;33.85;96110.50;5003689;28;20049;-66
2022/04/03 10:15:31;;;;;;;2.22;1.70;;;;;;;15.57;33.30;96062.72;5004288;28;20056;-66
2022/04/03 10:17:58;;;;;;;2.25;1.90;;;;;;;15.75;33.16;96112.66;5003847;28;20064;-65
2022/04/03 10:20:28;;;;;;;1.90;1.80;;;;;;;16.01;33.39;96115.34;5001925;28;20594;-60
2022/04/03 10:23:04;;;;;;;1.90;1.80;;;;;;;16.29;33.83;96108.41;5004051;28;20045;-66
2022/04/03 10:25:38;;;;;;;1.83;1.73;;;;;;;15.80;33.64;96059.91;5003391;28;20060;-61
2022/04/03 10:28:07;;;;;;;2.80;2.47;;;;;;;16.13;33.58;96067.22;5003795;28;20054;-62
2022/04/03 10:30:35;;;;;;;1.95;1.85;;;;;;;16.75;33.17;96124.25;5002005;28;20060;-64
2022/04/03 10:33:02;;;;;;;2.08;1.95;;;;;;;16.67;32.20;96118.03;5004115;28;20064;-67
2022/04/03 10:35:29;;;;;;;2.97;2.40;;;;;;;16.84;31.87;96116.06;5003324;28;20053;-67
2022/04/03 10:38:02;;;;;;;2.10;2.00;;;;;;;16.12;31.29;96025.75;5003563;28;20050;-59
2022/04/03 10:40:34;;;;;;;2.58;2.35;;;;;;;16.49;32.37;96056.91;5003438;28;20050;-67
2022/04/03 10:43:06;;;;;;;2.25;2.15;;;;;;;17.14;30.62;96124.97;5003782;28;20076;-67
2022/04/03 10:45:46;;;;;;;2.37;2.17;;;;;;;16.99;30.96;96122.94;5003186;28;20058;-60
2022/04/03 10:48:21;;;;;;;2.72;2.33;;;;;;;16.88;31.88;96116.78;5003803;28;20416;-62
2022/04/03 10:51:11;;;;;;;3.15;2.08;;;;;;;16.53;30.84;96130.28;5002236;28;20054;-59
2022/04/03 10:53:47;;;;;;;2.35;2.15;;;;;;;16.23;32.57;96116.50;5004200;28;20061;-58
2022/04/03 10:56:22;;;;;;;3.30;2.00;;;;;;;15.71;32.40;96135.03;5001896;28;20064;-58
2022/04/03 10:58:51;;;;;;;1.80;1.70;;;;;;;15.21;32.32;96084.06;5003798;28;20062;-68
2022/04/03 11:01:32;;;;;;;2.60;1.85;;;;;;;15.76;33.22;96126.19;5003773;28;20080;-59
2022/04/03 11:04:08;;;;;;;4.43;2.78;;;;;;;16.09;32.39;96127.19;5014621;28;20127;-58
2022/04/03 11:06:37;;;;;;;4.15;2.60;;;;;;;16.12;32.28;96127.09;5020814;28;20100;-68
2022/04/03 11:09:39;;;;;;;2.50;2.40;;;;;;;16.33;32.25;96123.91;5022900;28;20057;-68
2022/04/03 11:12:06;;;;;;;2.03;1.92;;;;;;;16.31;31.42;96123.53;5025565;28;20050;-68
2022/04/03 11:14:57;;;;;;;3.47;2.58;;;;;;;16.73;32.15;96116.31;5023066;28;20440;-60
2022/04/03 11:17:43;;;;;;;2.95;2.60;;;;;;;16.22;30.34;96081.41;5022710;28;20076;-68
2022/04/03 11:20:09;;;;;;;2.20;2.10;;;;;;;16.26;31.03;96084.94;5022712;28;20060;-69
2022/04/03 11:22:37;;;;;;;3.88;2.30;;;;;;;16.59;30.60;96117.41;5023187;28;20064;-69
2022/04/03 11:25:04;;;;;;;2.13;2.00;;;;;;;16.84;31.36;96110.47;5022887;28;20049;-59
2022/04/03 11:27:31;;;;;;;3.25;2.95;;;;;;;16.67;31.20;96066.91;5021469;28;20045;-67
2022/04/03 11:29:59;;;;;;;1.98;1.88;;;;;;;16.54;30.59;96156.25;5022862;28;20103;-59
2022/04/03 11:32:27;;;;;;;2.22;2.13;;;;;;;16.24;31.32;96154.44;5023106;28;20075;-68
2022/04/03 11:34:58;;;;;;;3.40;3.10;;;;;;;15.97;31.25;96148.16;5026407;28;20064;-69
2022/04/03 11:37:25;;;;;;;1.90;1.80;;;;;;;15.88;31.45;96156.31;5026398;28;20061;-60
2022/04/03 11:39:53;;;;;;;2.10;2.00;;;;;;;15.71;32.70;96118.28;5024281;28;20540;-59
2022/04/03 11:42:22;;;;;;;1.80;1.70;;;;;;;15.75;34.35;96162.91;5025657;28;20059;-68